Time;durP1;ratioP1;P1;durP2;ratioP2;P2;SDS_P1;SDS_P2;PMS_P1;PMS_P2;Temp;Humidity;BMP_temperature;BMP_pressure;BME280_temperature;BME280_humidity;BME280_pressure;Samples;Min_cycle;Max_cycle;Signal;HPM_P1;HPM_P2
2022/06/08 00:00:49;;;;;;;2.85;1.33;;;20.50;86.60;;;;;;5052136;28;20025;-59
2022/06/08 00:03:25;;;;;;;2.65;1.30;;;20.50;86.70;;;;;;5052797;28;20109;-59
2022/06/08 00:05:51;;;;;;;7.95;1.30;;;20.50;87.10;;;;;;5052981;28;20017;-59
2022/06/08 00:08:16;;;;;;;2.20;1.30;;;20.40;87.30;;;;;;5052601;28;20044;-60
2022/06/08 00:10:42;;;;;;;2.20;1.40;;;20.40;87.40;;;;;;5055836;28;20017;-59
2022/06/08 00:13:08;;;;;;;4.13;1.50;;;20.50;87.20;;;;;;5056722;28;20409;-59
2022/06/08 00:15:33;;;;;;;2.83;1.58;;;20.40;87.30;;;;;;5056634;28;20037;-60
2022/06/08 00:18:01;;;;;;;3.47;1.20;;;20.40;87.20;;;;;;5057032;28;20063;-59
2022/06/08 00:20:27;;;;;;;3.00;1.65;;;20.50;87.30;;;;;;5056628;28;20120;-60
2022/06/08 00:22:53;;;;;;;3.10;1.40;;;20.40;87.40;;;;;;5050227;28;20057;-59
2022/06/08 00:25:20;;;;;;;2.58;1.10;;;20.40;87.40;;;;;;5056422;28;20025;-59
2022/06/08 00:27:45;;;;;;;3.67;1.80;;;20.40;87.60;;;;;;5055793;28;20025;-60
2022/06/08 00:30:12;;;;;;;3.50;1.58;;;20.40;87.90;;;;;;5056585;28;20059;-59
2022/06/08 00:32:38;;;;;;;3.08;1.05;;;20.40;88.00;;;;;;5056527;28;20028;-59
2022/06/08 00:35:05;;;;;;;2.35;0.98;;;20.40;88.10;;;;;;5055944;28;20028;-59
2022/06/08 00:37:31;;;;;;;3.38;1.20;;;20.40;88.20;;;;;;5056417;28;20396;-59
2022/06/08 00:39:56;;;;;;;6.03;1.48;;;20.30;88.20;;;;;;5056537;28;20458;-61
2022/06/08 00:42:22;;;;;;;2.15;1.05;;;20.30;88.40;;;;;;5056536;28;20025;-60
2022/06/08 00:44:54;;;;;;;3.95;1.00;;;20.30;88.90;;;;;;5056424;28;20367;-59
2022/06/08 00:47:24;;;;;;;2.65;1.02;;;20.30;88.80;;;;;;5056530;28;20458;-61
2022/06/08 00:49:57;;;;;;;5.75;1.40;;;20.30;88.90;;;;;;5055904;28;20025;-58
2022/06/08 00:52:24;;;;;;;3.47;1.20;;;20.30;89.00;;;;;;5056413;28;20080;-60
2022/06/08 00:55:03;;;;;;;4.18;1.40;;;20.30;89.40;;;;;;5056099;28;20492;-65
2022/06/08 00:57:36;;;;;;;4.15;1.20;;;20.20;88.80;;;;;;5038471;28;20017;-60
2022/06/08 01:00:18;;;;;;;6.03;1.67;;;20.30;89.00;;;;;;5055507;28;20033;-59
2022/06/08 01:02:44;;;;;;;5.03;1.27;;;20.30;89.00;;;;;;5056142;28;20021;-60
2022/06/08 01:05:28;;;;;;;3.33;1.40;;;20.30;89.00;;;;;;5055840;28;20029;-59
2022/06/08 01:07:59;;;;;;;2.80;1.00;;;20.20;89.20;;;;;;5055614;28;20137;-63
2022/06/08 01:10:28;;;;;;;2.28;0.90;;;20.20;89.30;;;;;;5055337;28;20477;-60
2022/06/08 01:12:56;;;;;;;3.17;1.17;;;20.20;89.30;;;;;;5055790;28;20025;-66
2022/06/08 01:15:25;;;;;;;5.85;1.73;;;20.20;89.40;;;;;;5055806;28;20029;-68
2022/06/08 01:17:51;;;;;;;2.78;1.13;;;20.20;89.50;;;;;;5055812;28;20029;-67
2022/06/08 01:20:17;;;;;;;4.85;1.45;;;20.20;89.40;;;;;;5055024;28;20091;-59
2022/06/08 01:22:42;;;;;;;3.35;1.13;;;20.20;89.50;;;;;;5054614;28;20025;-68
2022/06/08 01:25:10;;;;;;;3.30;1.10;;;20.20;89.60;;;;;;5055521;28;20423;-63
2022/06/08 01:27:46;;;;;;;2.38;1.20;;;20.20;89.60;;;;;;5055578;28;20029;-62
2022/06/08 01:30:20;;;;;;;2.63;1.13;;;20.20;89.70;;;;;;5055481;28;20021;-67
2022/06/08 01:33:15;;;;;;;4.80;1.00;;;20.20;89.80;;;;;;5055544;28;20082;-68
2022/06/08 01:35:54;;;;;;;2.75;1.00;;;20.10;89.90;;;;;;5055425;28;20025;-59
2022/06/08 01:38:38;;;;;;;3.38;0.93;;;20.10;89.90;;;;;;5055687;28;20528;-60
2022/06/08 01:41:06;;;;;;;2.05;1.15;;;20.10;89.70;;;;;;5055411;28;20482;-60
2022/06/08 01:43:44;;;;;;;3.25;1.40;;;20.10;89.60;;;;;;5055034;28;20017;-65
2022/06/08 01:46:17;;;;;;;1.75;1.27;;;20.10;89.60;;;;;;5055236;28;20037;-60
2022/06/08 01:49:25;;;;;;;3.72;1.40;;;20.10;89.80;;;;;;5055010;28;20033;-61
2022/06/08 01:52:03;;;;;;;2.72;1.30;;;20.10;90.20;;;;;;5050964;28;20087;-63
2022/06/08 01:54:49;;;;;;;3.65;1.45;;;20.00;90.20;;;;;;5055107;28;20473;-68
2022/06/08 01:57:57;;;;;;;4.07;1.10;;;20.10;90.20;;;;;;5054892;28;20037;-59
2022/06/08 02:00:33;;;;;;;5.45;1.67;;;20.00;90.20;;;;;;5010551;28;20064;-59
2022/06/08 02:03:01;;;;;;;8.60;2.33;;;20.00;90.20;;;;;;5054639;28;20036;-61
2022/06/08 02:05:41;;;;;;;3.30;1.30;;;20.00;90.30;;;;;;5054828;28;20021;-60
2022/06/08 02:08:31;;;;;;;4.47;1.58;;;20.00;90.30;;;;;;5055200;28;20432;-62
2022/06/08 02:11:00;;;;;;;2.95;1.65;;;20.00;90.30;;;;;;5054750;28;20455;-59
2022/06/08 02:13:46;;;;;;;3.88;1.38;;;20.00;90.40;;;;;;5054781;28;20507;-61
2022/06/08 02:16:19;;;;;;;3.92;1.25;;;20.00;90.40;;;;;;5040164;28;20060;-63
2022/06/08 02:18:54;;;;;;;1.85;1.20;;;20.00;90.30;;;;;;5054795;28;20116;-64
2022/06/08 02:21:27;;;;;;;4.45;1.48;;;19.90;90.40;;;;;;5054726;28;20032;-63
2022/06/08 02:24:01;;;;;;;2.75;1.10;;;19.90;90.50;;;;;;5054390;28;20112;-68
2022/06/08 02:26:36;;;;;;;2.97;1.50;;;19.90;90.50;;;;;;5054305;28;20029;-68
2022/06/08 02:29:10;;;;;;;3.75;1.40;;;20.00;90.40;;;;;;5054556;28;20033;-68
2022/06/08 02:32:00;;;;;;;4.35;1.58;;;19.90;90.50;;;;;;5054404;28;20025;-68
2022/06/08 02:34:29;;;;;;;3.45;1.38;;;19.90;90.60;;;;;;5054254;28;20028;-68
2022/06/08 02:37:02;;;;;;;3.25;1.40;;;19.90;90.60;;;;;;5054197;28;20036;-61
2022/06/08 02:39:36;;;;;;;2.25;1.10;;;19.90;90.70;;;;;;5054447;28;20079;-68
2022/06/08 02:42:14;;;;;;;2.83;1.10;;;19.90;90.60;;;;;;5054404;28;20029;-67
2022/06/08 02:44:43;;;;;;;4.30;1.50;;;19.90;90.70;;;;;;5054381;28;20028;-68
2022/06/08 02:47:27;;;;;;;2.60;0.95;;;19.90;90.70;;;;;;5035976;28;20048;-68
2022/06/08 02:49:53;;;;;;;3.47;1.20;;;19.80;90.70;;;;;;5054279;28;20112;-62
2022/06/08 02:52:23;;;;;;;3.13;1.50;;;19.80;90.70;;;;;;5054278;28;20100;-68
2022/06/08 02:54:51;;;;;;;2.35;1.10;;;19.90;90.60;;;;;;5054010;28;20466;-68
2022/06/08 02:57:40;;;;;;;2.15;1.10;;;19.80;90.60;;;;;;5054045;28;20025;-68
2022/06/08 03:00:12;;;;;;;1.33;1.15;;;19.80;90.70;;;;;;5053623;28;20017;-68
2022/06/08 03:02:40;;;;;;;3.88;1.40;;;19.80;90.80;;;;;;5053925;28;20032;-67
2022/06/08 03:05:30;;;;;;;3.30;1.30;;;19.70;90.80;;;;;;5053775;28;20462;-67
2022/06/08 03:08:01;;;;;;;3.55;1.70;;;19.80;90.90;;;;;;5053722;28;20033;-68
2022/06/08 03:10:32;;;;;;;1.75;1.30;;;19.80;91.20;;;;;;5053619;28;20021;-67
2022/06/08 03:13:05;;;;;;;2.30;1.42;;;19.70;90.80;;;;;;5053320;28;20047;-69
2022/06/08 03:15:32;;;;;;;4.65;1.50;;;19.70;90.80;;;;;;5053356;28;20035;-68
2022/06/08 03:17:57;;;;;;;5.53;1.60;;;19.70;90.80;;;;;;5053450;28;20474;-67
2022/06/08 03:20:25;;;;;;;3.55;1.50;;;19.70;90.90;;;;;;5053457;28;20153;-68
2022/06/08 03:22:51;;;;;;;2.67;1.20;;;19.70;90.90;;;;;;5053483;28;20047;-69
2022/06/08 03:25:17;;;;;;;4.28;1.80;;;19.70;90.90;;;;;;5053747;28;20526;-68
2022/06/08 03:27:44;;;;;;;2.50;1.73;;;19.70;91.00;;;;;;5053227;28;20489;-68
2022/06/08 03:30:12;;;;;;;4.38;1.45;;;19.70;91.10;;;;;;5053311;28;20024;-67
2022/06/08 03:32:37;;;;;;;9.05;2.58;;;19.60;91.20;;;;;;5053119;28;20064;-66
2022/06/08 03:35:03;;;;;;;5.93;2.40;;;19.60;91.10;;;;;;5053336;28;20053;-66
2022/06/08 03:37:29;;;;;;;9.05;2.03;;;19.60;90.80;;;;;;5053021;28;20112;-64
2022/06/08 03:39:54;;;;;;;3.67;1.70;;;19.70;90.70;;;;;;5053393;28;20018;-60
2022/06/08 03:42:20;;;;;;;3.38;1.70;;;19.70;90.70;;;;;;5053338;28;20068;-66
2022/06/08 03:44:45;;;;;;;5.07;2.03;;;19.70;90.70;;;;;;5052017;28;20033;-61
2022/06/08 03:47:20;;;;;;;3.65;2.22;;;19.70;90.60;;;;;;5053125;28;20029;-63
2022/06/08 03:49:47;;;;;;;3.55;2.05;;;19.70;90.80;;;;;;5052818;28;20021;-63
2022/06/08 03:52:17;;;;;;;3.63;2.13;;;19.70;90.60;;;;;;5053092;28;20013;-61
2022/06/08 03:54:48;;;;;;;2.67;1.80;;;19.70;90.70;;;;;;5053035;28;20025;-58
2022/06/08 03:57:16;;;;;;;5.45;2.40;;;19.70;90.80;;;;;;5053221;28;20025;-61
2022/06/08 03:59:44;;;;;;;3.88;1.92;;;19.60;90.80;;;;;;5052790;28;20025;-65
2022/06/08 04:02:11;;;;;;;4.57;2.10;;;19.60;90.90;;;;;;5053191;28;20445;-67
2022/06/08 04:04:38;;;;;;;7.45;2.58;;;19.60;91.00;;;;;;5052842;28;20025;-60
2022/06/08 04:07:04;;;;;;;3.75;2.17;;;19.60;91.00;;;;;;5052838;28;20057;-62
2022/06/08 04:09:30;;;;;;;3.40;2.35;;;19.60;91.00;;;;;;5052899;28;20021;-63
2022/06/08 04:11:56;;;;;;;2.63;1.95;;;19.60;91.10;;;;;;5052903;28;20429;-64
2022/06/08 04:14:22;;;;;;;5.43;2.38;;;19.60;91.20;;;;;;5052497;28;20528;-62
2022/06/08 04:16:48;;;;;;;5.70;2.33;;;19.60;91.30;;;;;;5052823;28;20072;-66
2022/06/08 04:19:14;;;;;;;3.25;2.10;;;19.60;91.30;;;;;;5034577;28;20477;-59
2022/06/08 04:21:41;;;;;;;6.55;2.72;;;19.60;91.30;;;;;;5035072;28;20083;-58
2022/06/08 04:24:10;;;;;;;4.35;2.45;;;19.60;91.10;;;;;;5052785;28;20010;-58
2022/06/08 04:26:36;;;;;;;3.65;2.05;;;19.60;91.30;;;;;;5052750;28;20025;-60
2022/06/08 04:29:02;;;;;;;4.72;1.80;;;19.60;91.00;;;;;;5051882;28;20056;-63
2022/06/08 04:31:30;;;;;;;5.35;2.05;;;19.60;91.00;;;;;;5052863;28;20017;-56
2022/06/08 04:33:55;;;;;;;4.00;2.17;;;19.60;91.20;;;;;;5052252;28;20025;-59
2022/06/08 04:36:21;;;;;;;4.25;2.10;;;19.60;91.30;;;;;;5052895;28;20021;-64
2022/06/08 04:38:47;;;;;;;4.50;2.65;;;19.60;91.40;;;;;;5052474;28;20470;-58
2022/06/08 04:41:13;;;;;;;4.53;2.28;;;19.60;91.30;;;;;;5052652;28;20100;-66
2022/06/08 04:43:40;;;;;;;4.63;2.72;;;19.60;91.10;;;;;;5051884;28;20104;-66
2022/06/08 04:46:06;;;;;;;2.83;2.25;;;19.60;91.40;;;;;;5052461;28;20377;-66
2022/06/08 04:48:31;;;;;;;4.65;2.38;;;19.60;91.40;;;;;;5052479;28;20473;-66
2022/06/08 04:50:57;;;;;;;5.82;2.42;;;19.60;91.40;;;;;;5052497;28;20075;-66
2022/06/08 04:53:22;;;;;;;3.70;2.00;;;19.60;91.50;;;;;;5052068;28;20021;-65
2022/06/08 04:55:48;;;;;;;6.68;2.40;;;19.60;91.50;;;;;;5053168;28;20470;-63
2022/06/08 04:58:13;;;;;;;5.18;2.17;;;19.60;91.40;;;;;;5056245;28;20078;-66
2022/06/08 05:00:39;;;;;;;3.15;1.20;;;19.60;91.40;;;;;;5054340;28;20047;-65
2022/06/08 05:03:05;;;;;;;2.28;1.40;;;19.60;91.20;;;;;;5055432;28;20087;-64
2022/06/08 05:05:36;;;;;;;3.78;1.63;;;19.60;91.10;;;;;;5054432;28;20029;-65
2022/06/08 05:08:03;;;;;;;3.30;1.30;;;19.60;91.10;;;;;;5053943;28;20474;-67
2022/06/08 05:10:31;;;;;;;3.60;2.05;;;19.60;91.10;;;;;;5055634;28;20025;-65
2022/06/08 05:12:57;;;;;;;4.78;1.65;;;19.60;91.30;;;;;;5055326;28;20066;-65
2022/06/08 05:15:28;;;;;;;2.00;1.77;;;19.60;91.50;;;;;;5051312;28;20095;-65
2022/06/08 05:17:55;;;;;;;3.65;1.80;;;19.60;91.10;;;;;;5054323;28;20470;-59
2022/06/08 05:20:21;;;;;;;8.55;2.22;;;19.60;91.20;;;;;;5055350;28;20032;-65
2022/06/08 05:22:48;;;;;;;4.38;2.20;;;19.60;91.40;;;;;;5055419;28;20389;-62
2022/06/08 05:25:18;;;;;;;4.78;2.13;;;19.70;91.40;;;;;;5053367;28;20017;-65
2022/06/08 05:27:43;;;;;;;2.53;2.03;;;19.70;91.40;;;;;;5054850;28;20087;-65
2022/06/08 05:30:10;;;;;;;5.78;2.28;;;19.70;91.20;;;;;;5045531;28;20477;-65
2022/06/08 05:32:36;;;;;;;2.67;1.20;;;19.70;91.20;;;;;;5044575;28;20025;-60
2022/06/08 05:35:03;;;;;;;7.03;2.55;;;19.70;91.00;;;;;;5035929;28;20025;-56
2022/06/08 05:37:29;;;;;;;4.47;1.90;;;19.70;91.30;;;;;;5051171;28;20025;-59
2022/06/08 05:39:54;;;;;;;5.38;2.03;;;19.70;91.50;;;;;;5052212;28;20033;-61
2022/06/08 05:42:20;;;;;;;6.20;2.50;;;19.70;91.60;;;;;;5051267;28;20051;-62
2022/06/08 05:44:46;;;;;;;4.82;2.50;;;19.60;91.70;;;;;;5052839;28;20024;-56
2022/06/08 05:47:12;;;;;;;6.93;2.97;;;19.60;91.80;;;;;;5046433;28;20024;-59
2022/06/08 05:49:39;;;;;;;6.47;2.25;;;19.60;92.00;;;;;;5052723;28;20039;-54
2022/06/08 05:52:07;;;;;;;5.20;2.40;;;19.60;92.00;;;;;;5052982;28;20531;-59
2022/06/08 05:54:33;;;;;;;4.57;2.05;;;19.70;91.90;;;;;;5051144;28;20524;-62
2022/06/08 05:56:59;;;;;;;6.47;1.95;;;19.60;91.80;;;;;;5053446;28;20025;-60
2022/06/08 05:59:25;;;;;;;4.53;1.13;;;19.70;92.10;;;;;;5051494;28;20390;-62
2022/06/08 06:01:51;;;;;;;5.53;1.75;;;19.70;91.90;;;;;;5051909;28;20021;-62
2022/06/08 06:04:17;;;;;;;6.68;1.77;;;19.60;91.90;;;;;;5034200;28;20386;-68
2022/06/08 06:06:46;;;;;;;4.35;1.75;;;19.60;92.10;;;;;;5049201;28;20025;-64
2022/06/08 06:09:14;;;;;;;6.53;1.60;;;19.60;92.20;;;;;;5039238;28;20516;-62
2022/06/08 06:11:40;;;;;;;7.93;1.98;;;19.60;92.30;;;;;;5042796;28;20108;-61
2022/06/08 06:14:06;;;;;;;6.18;1.90;;;19.60;92.40;;;;;;5048066;28;20092;-60
2022/06/08 06:16:32;;;;;;;8.00;2.30;;;19.60;92.40;;;;;;5047596;28;20504;-61
2022/06/08 06:18:58;;;;;;;8.73;1.92;;;19.60;92.30;;;;;;5053358;28;20095;-70
2022/06/08 06:21:25;;;;;;;4.82;1.92;;;19.60;92.40;;;;;;5054120;28;20029;-71
2022/06/08 06:23:55;;;;;;;6.28;1.70;;;19.70;92.50;;;;;;5052533;28;20025;-60
2022/06/08 06:26:21;;;;;;;6.70;2.05;;;19.60;92.50;;;;;;5050192;28;20079;-60
2022/06/08 06:28:47;;;;;;;4.85;1.73;;;19.60;92.50;;;;;;5049124;28;20489;-60
2022/06/08 06:31:23;;;;;;;6.45;1.88;;;19.60;92.50;;;;;;5034228;28;20034;-60
2022/06/08 06:33:49;;;;;;;6.30;1.92;;;19.60;92.50;;;;;;5033063;28;20558;-59
2022/06/08 06:36:15;;;;;;;6.90;2.00;;;19.60;92.60;;;;;;5049922;28;20108;-60
2022/06/08 06:38:41;;;;;;;2.58;1.35;;;19.60;92.70;;;;;;5034022;28;20088;-64
2022/06/08 06:41:06;;;;;;;6.35;1.98;;;19.60;92.80;;;;;;5046094;28;20504;-65
2022/06/08 06:43:33;;;;;;;6.70;1.92;;;19.60;92.70;;;;;;5034043;28;20068;-60
2022/06/08 06:45:58;;;;;;;6.72;2.15;;;19.60;92.80;;;;;;5052757;28;20499;-70
2022/06/08 06:48:25;;;;;;;9.85;1.85;;;19.60;92.90;;;;;;5051727;28;20052;-60
2022/06/08 06:50:51;;;;;;;5.90;1.80;;;19.60;92.80;;;;;;5050687;28;20017;-59
2022/06/08 06:53:17;;;;;;;6.15;1.77;;;19.60;92.80;;;;;;5033999;28;20026;-62
2022/06/08 06:55:42;;;;;;;6.75;1.60;;;19.60;92.80;;;;;;5033933;28;20446;-62
2022/06/08 06:58:08;;;;;;;6.75;1.67;;;19.60;92.80;;;;;;5042721;28;20021;-60
2022/06/08 07:00:34;;;;;;;9.85;2.03;;;19.70;92.80;;;;;;5047254;28;20378;-61
2022/06/08 07:03:00;;;;;;;6.90;1.85;;;19.60;92.80;;;;;;5052944;28;20086;-63
2022/06/08 07:05:30;;;;;;;6.03;1.85;;;19.60;92.70;;;;;;5046632;28;20424;-65
2022/06/08 07:07:56;;;;;;;8.50;1.80;;;19.60;92.90;;;;;;5052476;28;20478;-63
2022/06/08 07:10:22;;;;;;;3.80;1.25;;;19.60;92.60;;;;;;5053547;28;20029;-65
2022/06/08 07:12:48;;;;;;;5.25;1.60;;;19.60;92.40;;;;;;5039252;28;20087;-63
2022/06/08 07:15:16;;;;;;;5.25;1.52;;;19.70;92.60;;;;;;5033615;28;20029;-68
2022/06/08 07:17:42;;;;;;;5.65;1.38;;;19.60;92.70;;;;;;5040725;28;20075;-69
2022/06/08 07:20:09;;;;;;;9.55;1.95;;;19.60;92.60;;;;;;5033547;28;20025;-64
2022/06/08 07:22:34;;;;;;;8.20;1.95;;;19.60;92.90;;;;;;5032524;28;20095;-61
2022/06/08 07:25:00;;;;;;;6.50;1.92;;;19.70;93.10;;;;;;5041558;28;20466;-64
2022/06/08 07:27:27;;;;;;;7.28;1.88;;;19.60;93.00;;;;;;5033896;28;20033;-60
2022/06/08 07:29:53;;;;;;;7.85;2.10;;;19.60;93.20;;;;;;5040608;28;20078;-66
2022/06/08 07:32:19;;;;;;;9.95;2.15;;;19.70;93.20;;;;;;5053072;28;20065;-68
2022/06/08 07:34:44;;;;;;;6.50;2.05;;;19.60;93.70;;;;;;5052920;28;20067;-69
2022/06/08 07:37:10;;;;;;;6.30;1.98;;;19.70;93.70;;;;;;5051016;28;21415;-60
2022/06/08 07:39:36;;;;;;;7.57;2.00;;;19.70;93.80;;;;;;5050337;28;20033;-60
2022/06/08 07:42:03;;;;;;;7.95;2.35;;;19.70;93.70;;;;;;5052624;28;20032;-63
2022/06/08 07:44:29;;;;;;;9.48;2.05;;;19.70;94.00;;;;;;5049378;28;20481;-66
2022/06/08 07:46:54;;;;;;;7.15;1.77;;;19.70;93.90;;;;;;5051239;28;20040;-66
2022/06/08 07:49:39;;;;;;;3.60;1.40;;;19.70;93.60;;;;;;5051729;28;20040;-64
2022/06/08 07:52:22;;;;;;;3.83;1.27;;;19.60;93.00;;;;;;5051112;28;20096;-68
2022/06/08 07:54:49;;;;;;;6.43;2.10;;;19.60;92.90;;;;;;5034534;28;20367;-66
2022/06/08 07:57:21;;;;;;;5.57;1.50;;;19.70;93.70;;;;;;5045280;28;20029;-72
2022/06/08 07:59:47;;;;;;;;;;;19.70;93.40;;;;;;5051209;28;20031;-67
2022/06/08 08:02:14;;;;;;;6.28;2.08;;;19.60;93.20;;;;;;5047384;28;19995;-71
2022/06/08 08:04:40;;;;;;;4.60;1.23;;;19.60;93.80;;;;;;5043646;28;20044;-70
2022/06/08 08:07:06;;;;;;;4.53;1.70;;;19.60;93.30;;;;;;5033670;28;20014;-71
2022/06/08 08:09:34;;;;;;;5.05;1.60;;;19.60;93.20;;;;;;5050890;28;20028;-71
2022/06/08 08:12:00;;;;;;;5.50;2.00;;;19.60;93.20;;;;;;5035040;28;20394;-69
2022/06/08 08:14:26;;;;;;;8.10;1.98;;;19.70;93.30;;;;;;5048772;28;20045;-70
2022/06/08 08:16:53;;;;;;;5.88;1.65;;;19.70;93.20;;;;;;5052889;28;20036;-69
2022/06/08 08:19:21;;;;;;;4.93;1.58;;;19.70;93.20;;;;;;5052227;28;20108;-68
2022/06/08 08:21:48;;;;;;;5.80;2.08;;;19.70;93.20;;;;;;5051426;28;20033;-71
2022/06/08 08:24:13;;;;;;;4.25;1.50;;;19.70;93.50;;;;;;5018350;28;20018;-72
2022/06/08 08:26:39;;;;;;;6.50;1.85;;;19.70;93.30;;;;;;5035683;28;20044;-69
2022/06/08 08:29:05;;;;;;;7.53;2.13;;;19.70;93.40;;;;;;5051971;28;20079;-62
2022/06/08 08:31:32;;;;;;;3.80;1.38;;;19.70;93.50;;;;;;5054368;28;20104;-71
2022/06/08 08:33:58;;;;;;;4.35;1.48;;;19.80;93.20;;;;;;5033815;28;20021;-64
2022/06/08 08:36:24;;;;;;;6.25;1.52;;;19.80;93.20;;;;;;5036626;28;20075;-64
2022/06/08 08:38:50;;;;;;;4.85;1.27;;;19.80;93.10;;;;;;5036717;28;20028;-69
2022/06/08 08:44:15;;;;;;;5.80;1.65;;;19.80;93.10;;;;;;5054860;28;20035;-70
2022/06/08 08:46:55;;;;;;;9.38;1.77;;;19.80;93.10;;;;;;5055427;28;20028;-70
2022/06/08 08:49:23;;;;;;;6.53;1.88;;;19.80;93.00;;;;;;5046981;28;20044;-68
2022/06/08 08:52:22;;;;;;;15.50;2.17;;;19.80;93.10;;;;;;5042099;28;20473;-71
2022/06/08 08:54:57;;;;;;;7.10;1.50;;;19.80;92.90;;;;;;5028258;28;20112;-66
2022/06/08 08:57:36;;;;;;;8.80;1.73;;;19.80;93.10;;;;;;5050514;28;20028;-72
2022/06/08 09:00:24;;;;;;;10.73;1.73;;;19.80;93.10;;;;;;5051530;28;20028;-71
2022/06/08 09:05:35;;;;;;;6.70;1.20;;;19.80;93.20;;;;;;5047941;28;20535;-64
2022/06/08 09:08:01;;;;;;;6.95;1.35;;;19.80;93.20;;;;;;5048223;28;20044;-71
2022/06/08 09:10:27;;;;;;;7.57;1.70;;;19.80;93.20;;;;;;5028543;28;20057;-62
2022/06/08 09:12:54;;;;;;;5.53;1.08;;;19.80;93.10;;;;;;5048449;28;20025;-65
2022/06/08 09:15:56;;;;;;;5.68;1.48;;;19.80;93.10;;;;;;5053293;28;20044;-60
2022/06/08 09:18:27;;;;;;;6.68;1.38;;;19.80;92.90;;;;;;5053232;28;20029;-60
2022/06/08 09:20:52;;;;;;;4.10;1.33;;;19.80;93.20;;;;;;5040472;28;20516;-61
2022/06/08 09:23:35;;;;;;;5.13;0.93;;;19.80;93.00;;;;;;5054299;28;20064;-59
2022/06/08 09:26:04;;;;;;;4.15;1.63;;;19.80;92.90;;;;;;5041996;28;20029;-62
2022/06/08 09:28:32;;;;;;;7.00;1.60;;;19.80;93.20;;;;;;5050392;28;20037;-62
2022/06/08 09:30:57;;;;;;;5.97;1.00;;;19.80;93.20;;;;;;5021734;28;20489;-62
2022/06/08 09:33:31;;;;;;;6.45;1.58;;;19.80;93.10;;;;;;5054901;28;20033;-69
2022/06/08 09:36:01;;;;;;;5.47;1.15;;;19.80;93.00;;;;;;5046932;28;20373;-63
2022/06/08 09:38:29;;;;;;;6.70;1.33;;;19.80;93.10;;;;;;5044115;28;20040;-61
2022/06/08 09:41:13;;;;;;;6.28;1.08;;;19.80;93.10;;;;;;5045369;28;20029;-61
2022/06/08 09:44:11;;;;;;;6.88;1.48;;;19.80;92.90;;;;;;5037680;28;20033;-62
2022/06/08 09:53:32;;;;;;;5.22;1.55;;;19.80;93.30;;;;;;5048283;28;20044;-58
2022/06/08 09:56:14;;;;;;;5.25;1.55;;;19.80;93.20;;;;;;4999879;28;20037;-59
2022/06/08 09:59:01;;;;;;;4.65;1.30;;;19.80;93.80;;;;;;5046550;28;20025;-59
2022/06/08 10:01:30;;;;;;;4.25;1.42;;;19.80;93.60;;;;;;5053218;28;20032;-60
2022/06/08 10:04:15;;;;;;;5.53;1.10;;;19.80;93.50;;;;;;5019249;28;20025;-63
2022/06/08 10:07:25;;;;;;;5.38;1.63;;;19.80;93.40;;;;;;5053985;28;20059;-59
2022/06/08 10:10:05;;;;;;;6.80;1.80;;;19.80;93.20;;;;;;5033786;28;20037;-60
2022/06/08 10:12:52;;;;;;;5.85;1.85;;;19.70;93.60;;;;;;5033659;28;20037;-60
2022/06/08 10:15:18;;;;;;;7.10;2.70;;;19.70;94.00;;;;;;5038949;28;20128;-60
2022/06/08 10:18:14;;;;;;;7.70;2.78;;;19.70;94.50;;;;;;5052481;28;20112;-61
2022/06/08 10:20:47;;;;;;;7.00;2.95;;;19.70;94.40;;;;;;5042386;28;20057;-60
2022/06/08 10:23:23;;;;;;;6.20;2.55;;;19.60;95.00;;;;;;5051493;28;20028;-59
2022/06/08 10:25:55;;;;;;;5.65;2.17;;;19.60;95.30;;;;;;5046431;28;20033;-60
2022/06/08 10:28:46;;;;;;;5.63;2.80;;;19.60;95.50;;;;;;5051591;28;20051;-67
2022/06/08 10:31:21;;;;;;;5.25;1.90;;;19.50;95.40;;;;;;5046720;28;20025;-64
2022/06/08 10:34:01;;;;;;;4.97;1.98;;;19.50;95.80;;;;;;5052116;28;20151;-70
2022/06/08 10:36:31;;;;;;;4.28;1.77;;;19.50;95.50;;;;;;5048991;28;20025;-84
2022/06/08 10:39:00;;;;;;;5.25;1.67;;;19.60;95.90;;;;;;5043056;28;20545;-65
2022/06/08 10:44:36;;;;;;;11.25;1.95;;;19.60;95.30;;;;;;5050924;28;20393;-64
2022/06/08 10:47:14;;;;;;;9.38;1.83;;;19.70;94.90;;;;;;5051216;28;20084;-69
2022/06/08 10:49:40;;;;;;;10.32;1.48;;;19.70;94.70;;;;;;5049167;28;20072;-75
2022/06/08 10:52:17;;;;;;;5.32;1.70;;;19.70;94.70;;;;;;5050190;28;20047;-77
2022/06/08 10:54:54;;;;;;;5.45;1.70;;;19.80;94.60;;;;;;5048525;28;20037;-78
2022/06/08 10:57:37;;;;;;;2.25;1.20;;;19.80;94.50;;;;;;5050952;28;20025;-79
2022/06/08 11:00:28;;;;;;;4.93;1.58;;;19.80;94.30;;;;;;5031914;28;20025;-78
2022/06/08 11:03:03;;;;;;;3.92;1.35;;;19.80;94.10;;;;;;5049026;28;20032;-70
2022/06/08 11:05:31;;;;;;;4.90;1.30;;;19.80;94.50;;;;;;5049553;28;20017;-67
2022/06/08 11:08:06;;;;;;;4.57;0.70;;;19.80;94.70;;;;;;5048619;28;20044;-76
2022/06/08 11:10:54;;;;;;;2.50;0.63;;;19.80;95.00;;;;;;5040701;28;20036;-77
2022/06/08 11:13:25;;;;;;;2.40;0.80;;;19.80;95.00;;;;;;5045199;28;20536;-80
2022/06/08 11:15:59;;;;;;;4.15;0.75;;;19.80;95.50;;;;;;5038407;28;20068;-67
2022/06/08 11:18:45;;;;;;;3.20;1.00;;;19.80;95.80;;;;;;5044387;28;20416;-72
2022/06/08 11:21:14;;;;;;;1.55;0.55;;;19.80;96.20;;;;;;5045100;28;20029;-79
2022/06/08 11:23:44;;;;;;;2.50;0.90;;;19.80;96.30;;;;;;5020511;28;20374;-71
2022/06/08 11:26:20;;;;;;;1.67;0.65;;;19.80;96.40;;;;;;5046782;28;20025;-77
2022/06/08 11:28:48;;;;;;;3.13;0.57;;;19.80;96.20;;;;;;5035661;28;20577;-70
2022/06/08 11:31:28;;;;;;;1.80;0.60;;;19.80;96.40;;;;;;5048436;28;20014;-72
2022/06/08 11:34:18;;;;;;;1.23;0.50;;;19.80;96.20;;;;;;5038390;28;20025;-73
2022/06/08 11:37:00;;;;;;;1.63;0.60;;;19.80;96.60;;;;;;5048958;28;20040;-70
2022/06/08 11:39:38;;;;;;;1.93;0.37;;;19.70;96.60;;;;;;5048193;28;20029;-69
2022/06/08 11:42:30;;;;;;;1.55;0.60;;;19.70;96.60;;;;;;5044046;28;20276;-68
2022/06/08 11:45:18;;;;;;;3.60;0.85;;;19.70;96.60;;;;;;5043758;28;20023;-67
2022/06/08 11:48:04;;;;;;;1.58;0.63;;;19.70;96.70;;;;;;5047280;28;20493;-68
2022/06/08 11:50:40;;;;;;;3.65;0.90;;;19.70;97.10;;;;;;5021429;28;20080;-66
2022/06/08 11:53:15;;;;;;;3.20;0.60;;;19.70;97.20;;;;;;5050242;28;20497;-67
2022/06/08 11:56:13;;;;;;;1.05;0.38;;;19.70;97.30;;;;;;5043764;28;20381;-67
2022/06/08 11:58:47;;;;;;;2.78;0.50;;;19.70;97.00;;;;;;5042688;28;20425;-67
2022/06/08 12:01:25;;;;;;;3.60;0.80;;;19.70;97.10;;;;;;5036912;28;20537;-67
2022/06/08 12:03:57;;;;;;;1.25;0.50;;;19.70;97.40;;;;;;5047287;28;20044;-59
2022/06/08 12:06:45;;;;;;;3.35;0.82;;;19.70;97.30;;;;;;5041510;28;20051;-62
2022/06/08 12:09:13;;;;;;;3.05;0.70;;;19.70;97.40;;;;;;5034745;28;20453;-60
2022/06/08 12:11:42;;;;;;;7.18;1.20;;;19.70;97.20;;;;;;5037236;28;20060;-59
2022/06/08 12:14:16;;;;;;;6.32;0.90;;;19.80;97.10;;;;;;5050331;28;20041;-59
2022/06/08 12:17:22;;;;;;;5.63;1.23;;;19.80;96.90;;;;;;5050356;28;20087;-60
2022/06/08 12:19:55;;;;;;;3.28;1.23;;;19.80;96.70;;;;;;5035762;28;20053;-59
2022/06/08 12:22:26;;;;;;;4.80;1.50;;;19.80;97.00;;;;;;5033479;28;20029;-59
2022/06/08 12:25:17;;;;;;;2.63;1.25;;;19.80;97.10;;;;;;5051751;28;20029;-59
2022/06/08 12:27:53;;;;;;;3.78;1.17;;;19.80;97.00;;;;;;5047453;28;20040;-59
2022/06/08 12:30:29;;;;;;;5.95;1.25;;;19.80;96.90;;;;;;5050002;28;20025;-62
2022/06/08 12:33:16;;;;;;;3.58;1.13;;;19.80;97.00;;;;;;5043110;28;20025;-60
2022/06/08 12:36:11;;;;;;;4.22;1.27;;;19.80;97.10;;;;;;5044844;28;20084;-59
2022/06/08 12:38:57;;;;;;;4.28;1.70;;;19.90;97.00;;;;;;5049037;28;20029;-59
2022/06/08 12:41:47;;;;;;;4.53;2.13;;;19.80;97.60;;;;;;5045935;28;20482;-59
2022/06/08 12:44:28;;;;;;;4.05;1.70;;;19.80;97.30;;;;;;5046693;28;20029;-59
2022/06/08 12:47:18;;;;;;;5.07;1.83;;;19.80;97.40;;;;;;5044658;28;20025;-63
2022/06/08 12:49:55;;;;;;;5.25;2.10;;;19.80;97.30;;;;;;5043890;28;20072;-61
2022/06/08 12:52:28;;;;;;;5.95;2.30;;;19.80;97.70;;;;;;5039012;28;20037;-63
2022/06/08 12:54:53;;;;;;;6.03;2.03;;;19.80;97.60;;;;;;5041157;28;20013;-62
2022/06/08 12:57:25;;;;;;;4.95;1.50;;;19.90;97.40;;;;;;5042746;28;20382;-68
2022/06/08 12:59:53;;;;;;;6.23;1.87;;;19.80;97.10;;;;;;5043719;28;20033;-62
2022/06/08 13:02:29;;;;;;;7.88;1.90;;;19.90;97.00;;;;;;5049019;28;20272;-69
2022/06/08 13:04:55;;;;;;;5.43;1.77;;;19.90;97.00;;;;;;5046643;28;20017;-63
2022/06/08 13:07:25;;;;;;;6.03;2.15;;;19.90;97.10;;;;;;5042380;28;20115;-70
2022/06/08 13:09:51;;;;;;;7.40;2.50;;;19.90;97.10;;;;;;5040761;28;20029;-68
2022/06/08 13:12:33;;;;;;;7.32;2.47;;;19.90;97.20;;;;;;5034730;28;20088;-68
2022/06/08 13:14:58;;;;;;;8.57;2.65;;;19.90;96.90;;;;;;5050560;28;20033;-69
2022/06/08 13:17:28;;;;;;;11.00;2.92;;;19.90;97.20;;;;;;5053261;28;20029;-67
2022/06/08 13:19:57;;;;;;;8.73;2.30;;;19.90;97.30;;;;;;5054341;28;20122;-69
2022/06/08 13:22:25;;;;;;;6.07;2.15;;;19.90;97.30;;;;;;5055015;28;20024;-64
2022/06/08 13:24:50;;;;;;;8.23;2.72;;;20.00;97.30;;;;;;5054668;28;20083;-68
2022/06/08 13:27:17;;;;;;;13.13;3.35;;;19.90;97.40;;;;;;5054883;28;20032;-62